New Hamburg, Missouri
Current Conditions -  °F | °C
As of 3:53 AM on Thursday 18 Dec 2014 (Local Time) from KCGI Reporting Station
Haze Haze  
Wind Chill: 28°   Ceiling: 4500
Heat Index: 33°   Visibility: 5mi
Dew Point: 32°   Wind: 6mph
Humidity: 96%   Direction: 50°NE
Pressure: 30.25"   Gusts: NA
Location:  37.0755°N, 89.5496°W
Report Text: KCGI 180953Z AUTO 05005KT 5SM BR BKN045 OVC065 01/00 A3025 RMK AO2 UPE31RAB01E13 SLP247 P0002 T00060000 TSNO
Loading
Personal Weather Stations






























Interactive Weather Map New forecast layout! Learn more

10-Day Weather Forecast

Advertisements
Track Severe Weather on mobile